Skip Navigation Links Skip Navigation Links

Current Weather

New Century Aircenter, Olathe, Kan.

For information only: do not use for flight planning or navigation.
Latest weather
Observation time Monday, October 18, 2021 2:53 PM CDT
Local time Monday, October 18, 2021 3:21 PM CDT
Flight conditions Visual Meteorological Conditions
Winds
Wind direction South (190°)
Wind speed 14 mph
Wind gusting to 25 mph
Visibility 10 mi.
Sky condition
Ceiling unlimited
Sky clear
Temperature 72°F
Dewpoint 42°F
Altimeter 30.04 in.Hg
Derived measurements
Relative humidity 34%
Density altitude 1925 ft.
Sea-level pressure 30.03 in.Hg
Remarks
Automated weather observing station with precipitation discriminator.
METAR KIXD 181953Z 19012G22KT 10SM CLR 22/06 A3004 RMK AO2 SLP169 T02220056

Settings

Location code

InnerDrive.Weather 4.0.6770.0 Release CLR 4.0.30319.42000
Copyright ©2018 Inner Drive Technology. All rights reserved. Portions Copyright ©1986-2018 David Braverman.

Find weather

Site navigation


Skip Navigation Links

Place info

Page info

PayPal - The safer, easier way to pay online!

Return home.

Copyright ©2021 Inner Drive Technology. Purveyors of fine, hand-crafted computer software. Page printed 2021-10-18T20:21:17 UTC.